createdAt,value
2022-08-16T00:02:54.810Z,18
2022-08-16T00:06:39.277Z,22
2022-08-16T00:09:42.460Z,18
2022-08-16T00:12:47.983Z,18
2022-08-16T00:15:54.046Z,21
2022-08-16T00:19:40.959Z,20
2022-08-16T00:22:40.778Z,21
2022-08-16T00:26:34.279Z,21
2022-08-16T00:28:54.674Z,21
2022-08-16T00:32:00.207Z,22
2022-08-16T00:35:39.124Z,20
2022-08-16T00:38:44.420Z,23
2022-08-16T00:41:49.725Z,24
2022-08-16T00:44:55.047Z,24
2022-08-16T00:48:31.485Z,24
2022-08-16T00:50:57.434Z,22
2022-08-16T00:54:39.832Z,23
2022-08-16T00:57:59.433Z,20
2022-08-16T01:00:53.848Z,26
2022-08-16T01:03:55.786Z,21
2022-08-16T01:07:43.799Z,23
2022-08-16T01:10:43.444Z,24
2022-08-16T01:13:48.728Z,28
2022-08-16T01:16:54.092Z,26
2022-08-16T01:20:36.420Z,24
2022-08-16T01:23:58.265Z,26
2022-08-16T01:26:47.014Z,25
2022-08-16T01:29:57.523Z,25
2022-08-16T01:33:01.491Z,24
2022-08-16T01:36:40.028Z,24
2022-08-16T01:39:45.416Z,28
2022-08-16T01:42:53.975Z,26
2022-08-16T01:47:38.980Z,29
2022-08-16T01:51:17.274Z,32
2022-08-16T01:53:54.500Z,25
2022-08-16T01:56:54.926Z,27
2022-08-16T02:00:37.259Z,30
2022-08-16T02:03:42.554Z,30
2022-08-16T02:06:47.909Z,29
2022-08-16T02:09:56.808Z,27
2022-08-16T02:13:00.233Z,27
2022-08-16T02:16:40.866Z,26
2022-08-16T02:19:58.380Z,25
2022-08-16T02:22:51.603Z,25
2022-08-16T02:25:56.825Z,26
2022-08-16T02:29:41.383Z,24
2022-08-16T02:32:49.618Z,22
2022-08-16T02:35:54.180Z,27
2022-08-16T02:38:55.140Z,25
2022-08-16T02:42:37.472Z,24
2022-08-16T02:45:42.803Z,23
2022-08-16T02:48:39.920Z,24
2022-08-16T02:51:45.220Z,23
2022-08-16T02:54:54.598Z,28
2022-08-16T02:57:55.837Z,31
2022-08-16T03:01:38.222Z,30
2022-08-16T03:04:51.106Z,30
2022-08-16T03:07:50.577Z,30
2022-08-16T03:10:54.144Z,32
2022-08-16T03:14:36.535Z,29
2022-08-16T03:17:53.490Z,30
2022-08-16T03:20:55.430Z,29
2022-08-16T03:23:52.440Z,33
2022-08-16T03:26:58.671Z,26
2022-08-16T03:30:40.193Z,34
2022-08-16T03:33:45.437Z,23
2022-08-16T03:36:50.741Z,29
2022-08-16T03:39:56.298Z,29
2022-08-16T03:43:50.925Z,29
2022-08-16T03:46:44.651Z,29
2022-08-16T03:49:40.898Z,29
2022-08-16T03:52:46.314Z,31
2022-08-16T03:55:51.531Z,28
2022-08-16T03:58:56.799Z,33
2022-08-16T04:02:40.260Z,32
2022-08-16T04:05:44.502Z,30
2022-08-16T04:08:49.820Z,34
2022-08-16T04:11:55.111Z,31
2022-08-16T04:15:37.455Z,31
2022-08-16T04:18:42.793Z,33
2022-08-16T04:21:48.076Z,31
2022-08-16T04:24:54.080Z,28
2022-08-16T04:28:53.064Z,34
2022-08-16T04:31:41.105Z,32
2022-08-16T04:34:46.397Z,33
2022-08-16T04:37:53.628Z,30
2022-08-16T04:40:57.015Z,37
2022-08-16T04:44:52.963Z,38
2022-08-16T04:49:27.699Z,37
2022-08-16T04:51:55.940Z,32
2022-08-16T04:55:38.841Z,29
2022-08-16T04:58:46.571Z,32
2022-08-16T05:01:58.407Z,34
2022-08-16T05:04:54.246Z,39
2022-08-16T05:08:36.589Z,38
2022-08-16T05:11:41.938Z,41
2022-08-16T05:15:01.639Z,42
2022-08-16T05:17:58.523Z,46
2022-08-16T05:21:01.549Z,40
2022-08-16T05:24:40.238Z,40
2022-08-16T05:27:45.525Z,45
2022-08-16T05:30:50.859Z,41
2022-08-16T05:33:56.213Z,40
2022-08-16T05:37:39.637Z,44
2022-08-16T05:40:43.877Z,34
2022-08-16T05:43:49.186Z,34
2022-08-16T05:46:54.646Z,37
2022-08-16T05:49:51.571Z,35
2022-08-16T05:52:56.885Z,34
2022-08-16T05:56:39.273Z,32
2022-08-16T05:59:44.583Z,33
2022-08-16T06:02:50.083Z,39
2022-08-16T06:05:55.217Z,34
2022-08-16T06:09:43.151Z,39
2022-08-16T06:12:42.889Z,39
2022-08-16T06:15:48.157Z,38
2022-08-16T06:18:53.499Z,42
2022-08-16T06:22:39.298Z,39
2022-08-16T06:25:41.168Z,36
2022-08-16T06:28:46.474Z,42
2022-08-16T06:31:51.797Z,41
2022-08-16T06:35:02.227Z,44
2022-08-16T06:38:39.482Z,40
2022-08-16T06:41:44.822Z,44
2022-08-16T06:44:50.129Z,46
2022-08-16T06:47:56.175Z,44
2022-08-16T06:51:45.386Z,48
2022-08-16T06:53:57.854Z,48
2022-08-16T06:57:40.312Z,41
2022-08-16T07:00:45.590Z,48
2022-08-16T07:03:54.874Z,57
2022-08-16T07:06:56.170Z,52
2022-08-16T07:10:38.518Z,49
2022-08-16T07:13:57.694Z,45
2022-08-16T07:16:49.133Z,55
2022-08-16T07:20:02.271Z,47
2022-08-16T07:23:37.564Z,42
2022-08-16T07:26:42.150Z,44
2022-08-16T07:29:47.439Z,45
2022-08-16T07:32:52.749Z,47
2022-08-16T07:35:58.089Z,48
2022-08-16T07:39:43.054Z,46
2022-08-16T07:42:45.763Z,42
2022-08-16T07:45:53.019Z,52
2022-08-16T07:48:56.361Z,40
2022-08-16T07:52:39.146Z,45
2022-08-16T07:55:46.120Z,48
2022-08-16T07:58:49.351Z,48
2022-08-16T08:03:39.438Z,41
2022-08-16T08:06:43.049Z,39
2022-08-16T08:09:48.288Z,39
2022-08-16T08:12:54.955Z,34
2022-08-16T08:17:50.133Z,49
2022-08-16T08:20:59.092Z,46
2022-08-16T08:24:37.801Z,46
2022-08-16T08:27:44.069Z,44
2022-08-16T08:30:50.746Z,37
2022-08-16T08:33:53.695Z,44
2022-08-16T08:37:54.926Z,45
2022-08-16T08:40:41.384Z,42
2022-08-16T08:43:42.033Z,40
2022-08-16T08:45:48.258Z,36
2022-08-16T08:48:43.789Z,41
2022-08-16T08:51:48.495Z,45
2022-08-16T08:55:26.286Z,46
2022-08-16T08:58:36.214Z,47
2022-08-16T09:01:36.310Z,44
2022-08-16T09:04:38.597Z,42
2022-08-16T09:07:54.852Z,44
2022-08-16T09:10:49.250Z,39
2022-08-16T09:13:54.558Z,41
2022-08-16T09:17:49.376Z,41
2022-08-16T09:20:55.191Z,41
2022-08-16T09:23:47.544Z,44
2022-08-16T09:26:52.838Z,45
2022-08-16T09:29:59.630Z,40
2022-08-16T09:33:40.527Z,44
2022-08-16T09:36:46.018Z,44
2022-08-16T09:39:51.286Z,41
2022-08-16T09:42:58.919Z,45
2022-08-16T09:46:45.451Z,39
2022-08-16T09:49:44.175Z,45
2022-08-16T09:52:49.778Z,39
2022-08-16T09:55:56.750Z,39
2022-08-16T09:59:38.310Z,39
2022-08-16T10:02:34.292Z,41
2022-08-16T10:05:39.544Z,42
2022-08-16T10:08:51.286Z,38
2022-08-16T10:11:50.802Z,44
2022-08-16T10:14:55.533Z,41
2022-08-16T10:18:54.075Z,42
2022-08-16T10:21:43.189Z,41
2022-08-16T10:24:55.446Z,40
2022-08-16T10:28:01.190Z,36
2022-08-16T10:31:43.886Z,40
2022-08-16T10:34:41.489Z,34
2022-08-16T10:37:46.815Z,41
2022-08-16T10:41:07.449Z,31
2022-08-16T10:43:57.427Z,34
2022-08-16T10:47:39.796Z,34
2022-08-16T10:50:45.122Z,37
2022-08-16T10:53:50.398Z,33
2022-08-16T10:56:56.993Z,39
2022-08-16T11:00:29.935Z,29
2022-08-16T11:03:01.188Z,34
2022-08-16T11:06:40.669Z,30
2022-08-16T11:09:45.847Z,33
2022-08-16T11:12:52.670Z,30
2022-08-16T11:15:57.560Z,26
2022-08-16T11:20:00.852Z,30
2022-08-16T11:22:47.978Z,29
2022-08-16T11:26:16.758Z,26
2022-08-16T11:29:14.391Z,28
2022-08-16T11:32:37.157Z,27
2022-08-16T11:35:43.986Z,28
2022-08-16T11:38:52.151Z,30
2022-08-16T11:41:53.222Z,30
2022-08-16T11:45:35.436Z,32
2022-08-16T11:48:40.758Z,26
2022-08-16T11:51:46.038Z,26
2022-08-16T11:54:53.853Z,26
2022-08-16T11:57:57.396Z,25
2022-08-16T12:02:45.797Z,26
2022-08-16T12:05:51.759Z,27
2022-08-16T12:08:55.610Z,27
2022-08-16T12:12:38.041Z,29
2022-08-16T12:15:43.301Z,31
2022-08-16T12:21:57.962Z,24
2022-08-16T12:25:36.298Z,24
2022-08-16T12:28:52.157Z,24
2022-08-16T12:31:56.807Z,25
2022-08-16T12:34:52.976Z,27
2022-08-16T12:37:57.531Z,24
2022-08-16T12:41:39.933Z,24
2022-08-16T12:44:45.215Z,24
2022-08-16T12:47:50.506Z,24
2022-08-16T12:50:56.946Z,24
2022-08-16T12:54:38.198Z,24
2022-08-16T12:57:43.556Z,22
2022-08-16T13:00:48.856Z,24
2022-08-16T13:03:45.947Z,27
2022-08-16T13:06:52.185Z,19
2022-08-16T13:09:56.559Z,25
2022-08-16T13:13:38.911Z,25
2022-08-16T13:16:44.897Z,24
2022-08-16T13:20:06.960Z,22
2022-08-16T13:22:54.887Z,22
2022-08-16T13:26:37.225Z,19
2022-08-16T13:29:44.003Z,25
2022-08-16T13:32:47.839Z,26
2022-08-16T13:35:56.619Z,23
2022-08-16T13:39:35.564Z,22
2022-08-16T13:42:41.552Z,22
2022-08-16T13:45:46.161Z,21
2022-08-16T13:48:51.463Z,21
2022-08-16T13:51:56.803Z,21
2022-08-16T13:55:40.889Z,19
2022-08-16T13:58:54.689Z,21
2022-08-16T14:02:46.647Z,20
2022-08-16T14:04:46.902Z,24
2022-08-16T14:07:52.652Z,21
2022-08-16T14:10:57.546Z,22
2022-08-16T14:14:39.911Z,19
2022-08-16T14:18:15.031Z,22
2022-08-16T14:20:51.205Z,22
2022-08-16T14:23:55.815Z,25
2022-08-16T14:27:39.055Z,22
2022-08-16T14:30:43.519Z,27
2022-08-16T14:33:48.820Z,23
2022-08-16T14:36:54.148Z,22
2022-08-16T14:40:36.494Z,20
2022-08-16T14:43:41.819Z,23
2022-08-16T14:46:47.119Z,20
2022-08-16T14:49:52.647Z,18
2022-08-16T14:52:57.737Z,19
2022-08-16T14:56:42.689Z,17
2022-08-16T15:04:39.899Z,17
2022-08-16T15:07:40.083Z,20
2022-08-16T15:10:45.626Z,20
2022-08-16T15:13:49.653Z,20
2022-08-16T15:16:54.997Z,21
2022-08-16T15:20:37.351Z,21
2022-08-16T15:23:42.640Z,19
2022-08-16T15:26:47.992Z,20
2022-08-16T15:29:53.253Z,19
2022-08-16T15:32:58.590Z,19
2022-08-16T15:36:40.957Z,21
2022-08-16T15:39:48.308Z,18
2022-08-16T15:42:53.969Z,19
2022-08-16T15:45:56.877Z,17
2022-08-16T15:49:45.744Z,19
2022-08-16T15:52:44.603Z,17
2022-08-16T15:55:49.880Z,20
2022-08-16T15:58:55.728Z,21
2022-08-16T16:02:37.569Z,21
2022-08-16T16:05:34.667Z,19
2022-08-16T16:08:41.641Z,20
2022-08-16T16:11:45.322Z,21
2022-08-16T16:14:50.670Z,18
2022-08-16T16:17:56.133Z,21
2022-08-16T16:21:38.255Z,18
2022-08-16T16:24:43.923Z,20
2022-08-16T16:27:49.094Z,21
2022-08-16T16:30:56.585Z,18
2022-08-16T16:34:36.609Z,18
2022-08-16T16:37:41.932Z,20
2022-08-16T16:40:54.075Z,17
2022-08-16T16:43:53.442Z,18
2022-08-16T16:46:58.070Z,22
2022-08-16T16:50:40.221Z,16
2022-08-16T16:53:45.556Z,17
2022-08-16T16:56:50.822Z,18
2022-08-16T16:59:56.147Z,19
2022-08-16T17:03:01.479Z,19
2022-08-16T17:06:35.667Z,21
2022-08-16T17:09:41.245Z,19
2022-08-16T17:12:55.589Z,19
2022-08-16T17:15:52.149Z,18
2022-08-16T17:19:02.111Z,16
2022-08-16T17:22:39.280Z,20
2022-08-16T17:25:44.597Z,19
2022-08-16T17:28:52.034Z,17
2022-08-16T17:31:55.195Z,16
2022-08-16T17:35:37.589Z,15
2022-08-16T17:38:44.263Z,19
2022-08-16T17:41:48.213Z,19
2022-08-16T17:44:54.432Z,18
2022-08-16T17:47:58.808Z,19
2022-08-16T17:51:41.219Z,19
2022-08-16T17:54:46.494Z,16
2022-08-16T17:57:51.775Z,17
2022-08-16T18:00:57.107Z,19
2022-08-16T18:04:43.626Z,20
2022-08-16T18:07:36.615Z,19
2022-08-16T18:10:41.905Z,17
2022-08-16T18:13:47.230Z,18
2022-08-16T18:16:52.550Z,23
2022-08-16T18:19:57.829Z,28
2022-08-16T18:23:40.198Z,28
2022-08-16T18:26:45.548Z,28
2022-08-16T18:29:51.153Z,25
2022-08-16T18:32:56.202Z,28
2022-08-16T18:36:38.499Z,22
2022-08-16T18:39:43.896Z,22
2022-08-16T18:42:49.237Z,23
2022-08-16T18:45:54.456Z,26
2022-08-16T18:49:36.817Z,27
2022-08-16T18:52:42.164Z,23
2022-08-16T18:55:47.458Z,24
2022-08-16T18:58:52.796Z,30
2022-08-16T19:01:59.886Z,27
2022-08-16T19:05:32.269Z,24
2022-08-16T19:08:37.564Z,21
2022-08-16T19:11:42.928Z,24
2022-08-16T19:14:48.192Z,25
2022-08-16T19:17:53.458Z,24
2022-08-16T19:21:35.862Z,22
2022-08-16T19:24:41.170Z,23
2022-08-16T19:27:46.489Z,27
2022-08-16T19:30:51.787Z,27
2022-08-16T19:33:57.140Z,25
2022-08-16T19:36:30.671Z,23
2022-08-16T19:38:53.578Z,24
2022-08-16T19:42:35.948Z,24
2022-08-16T19:45:45.454Z,24
2022-08-16T19:48:46.562Z,24
2022-08-16T19:51:51.899Z,25
2022-08-16T19:54:57.212Z,27
2022-08-16T19:58:47.346Z,26
2022-08-16T20:01:44.916Z,25
2022-08-16T20:04:50.205Z,24
2022-08-16T20:07:55.831Z,26
2022-08-16T20:11:37.906Z,25
2022-08-16T20:14:43.201Z,23
2022-08-16T20:17:40.300Z,24
2022-08-16T20:20:45.621Z,24
2022-08-16T20:23:50.922Z,25
2022-08-16T20:26:56.265Z,26
2022-08-16T20:30:38.623Z,25
2022-08-16T20:33:43.917Z,27
2022-08-16T20:36:49.249Z,26
2022-08-16T20:40:05.769Z,24
2022-08-16T20:43:36.917Z,24
2022-08-16T20:46:42.247Z,28
2022-08-16T20:49:47.537Z,28
2022-08-16T20:52:52.862Z,28
2022-08-16T20:55:58.139Z,29
2022-08-16T20:59:40.535Z,27
2022-08-16T21:02:45.919Z,28
2022-08-16T21:05:51.153Z,33
2022-08-16T21:08:56.471Z,28
2022-08-16T21:12:38.827Z,26
2022-08-16T21:16:50.078Z,28
2022-08-16T21:19:55.407Z,29
2022-08-16T21:24:53.930Z,28
2022-08-16T21:28:38.588Z,30
2022-08-16T21:31:39.577Z,29
2022-08-16T21:34:44.890Z,29
2022-08-16T21:38:00.078Z,34
2022-08-16T21:40:55.529Z,35
2022-08-16T21:44:38.515Z,29
2022-08-16T21:47:43.183Z,30
2022-08-16T21:50:48.488Z,31
2022-08-16T21:53:53.814Z,32
2022-08-16T21:57:36.264Z,26
2022-08-16T22:00:41.477Z,29
2022-08-16T22:03:46.791Z,30
2022-08-16T22:06:52.124Z,29
2022-08-16T22:09:57.461Z,31
2022-08-16T22:13:40.221Z,31
2022-08-16T22:16:36.909Z,32
2022-08-16T22:19:42.207Z,31
2022-08-16T22:22:47.644Z,28
2022-08-16T22:25:52.898Z,35
2022-08-16T22:28:58.185Z,30
2022-08-16T22:32:40.544Z,33
2022-08-16T22:35:45.826Z,31
2022-08-16T22:38:55.293Z,34
2022-08-16T22:41:56.462Z,31
2022-08-16T22:45:38.826Z,32
2022-08-16T22:48:44.125Z,30
2022-08-16T22:51:49.443Z,35
2022-08-16T22:54:54.739Z,30
2022-08-16T22:58:37.470Z,30
2022-08-16T23:01:42.586Z,31
2022-08-16T23:04:47.747Z,32
2022-08-16T23:07:53.088Z,28
2022-08-16T23:10:58.387Z,29
2022-08-16T23:14:40.762Z,30
2022-08-16T23:17:37.856Z,29
2022-08-16T23:20:43.175Z,32
2022-08-16T23:23:48.481Z,32
2022-08-16T23:26:53.819Z,39
2022-08-16T23:30:36.158Z,37
2022-08-16T23:34:55.614Z,33
2022-08-16T23:38:39.316Z,33
2022-08-16T23:41:43.319Z,36
2022-08-16T23:44:57.558Z,33
2022-08-16T23:47:53.913Z,31
2022-08-16T23:51:36.271Z,32
2022-08-16T23:54:41.593Z,34
2022-08-16T23:57:47.010Z,33
